sensor_id;sensor_type;location;lat;lon;timestamp;pressure;altitude;pressure_sealevel;temperature;humidity
20156;BME280;10238;49.556;10.956;2023-05-23T00:00:22;97876.25;;;18.38;100.00
20156;BME280;10238;49.556;10.956;2023-05-23T00:03:10;97874.81;;;18.36;100.00
20156;BME280;10238;49.556;10.956;2023-05-23T00:06:00;97882.47;;;18.32;100.00
20156;BME280;10238;49.556;10.956;2023-05-23T00:08:49;97877.94;;;18.26;100.00
20156;BME280;10238;49.556;10.956;2023-05-23T00:11:36;97884.00;;;18.22;100.00
20156;BME280;10238;49.556;10.956;2023-05-23T00:14:24;97885.84;;;18.21;100.00
20156;BME280;10238;49.556;10.956;2023-05-23T00:17:12;97889.59;;;18.20;100.00
20156;BME280;10238;49.556;10.956;2023-05-23T00:20:00;97888.75;;;18.13;100.00
20156;BME280;10238;49.556;10.956;2023-05-23T00:22:48;97899.31;;;18.15;100.00
20156;BME280;10238;49.556;10.956;2023-05-23T00:25:36;97895.19;;;18.12;100.00
20156;BME280;10238;49.556;10.956;2023-05-23T00:28:26;97893.34;;;18.13;100.00
20156;BME280;10238;49.556;10.956;2023-05-23T00:31:14;97898.94;;;18.11;100.00
20156;BME280;10238;49.556;10.956;2023-05-23T00:34:03;97902.22;;;18.13;100.00
20156;BME280;10238;49.556;10.956;2023-05-23T00:36:50;97904.31;;;18.11;100.00
20156;BME280;10238;49.556;10.956;2023-05-23T00:39:39;97905.38;;;18.04;100.00
20156;BME280;10238;49.556;10.956;2023-05-23T00:42:28;97902.28;;;18.00;100.00
20156;BME280;10238;49.556;10.956;2023-05-23T00:45:17;97903.94;;;18.01;100.00
20156;BME280;10238;49.556;10.956;2023-05-23T00:48:06;97912.22;;;17.93;100.00
20156;BME280;10238;49.556;10.956;2023-05-23T00:50:55;97916.38;;;17.89;100.00
20156;BME280;10238;49.556;10.956;2023-05-23T00:53:44;97918.44;;;17.87;100.00
20156;BME280;10238;49.556;10.956;2023-05-23T00:56:32;97920.72;;;17.90;100.00
20156;BME280;10238;49.556;10.956;2023-05-23T00:59:23;97920.72;;;17.90;100.00
20156;BME280;10238;49.556;10.956;2023-05-23T01:02:11;97914.13;;;17.86;100.00
20156;BME280;10238;49.556;10.956;2023-05-23T01:04:59;97913.09;;;17.81;100.00
20156;BME280;10238;49.556;10.956;2023-05-23T01:07:49;97909.38;;;17.75;100.00
20156;BME280;10238;49.556;10.956;2023-05-23T01:10:37;97915.38;;;17.77;100.00
20156;BME280;10238;49.556;10.956;2023-05-23T01:13:35;97910.41;;;17.74;100.00
20156;BME280;10238;49.556;10.956;2023-05-23T01:16:37;97912.31;;;17.67;100.00
20156;BME280;10238;49.556;10.956;2023-05-23T01:19:50;97910.03;;;17.64;100.00
20156;BME280;10238;49.556;10.956;2023-05-23T01:26:44;97911.91;;;17.51;100.00
20156;BME280;10238;49.556;10.956;2023-05-23T01:29:42;97915.22;;;17.46;100.00
20156;BME280;10238;49.556;10.956;2023-05-23T01:32:31;97910.63;;;17.40;100.00
20156;BME280;10238;49.556;10.956;2023-05-23T01:35:24;97912.53;;;17.40;100.00
20156;BME280;10238;49.556;10.956;2023-05-23T01:38:12;97913.31;;;17.40;100.00
20156;BME280;10238;49.556;10.956;2023-05-23T01:41:00;97911.47;;;17.41;100.00
20156;BME280;10238;49.556;10.956;2023-05-23T01:43:48;97907.78;;;17.35;100.00
20156;BME280;10238;49.556;10.956;2023-05-23T01:46:39;97919.31;;;17.36;100.00
20156;BME280;10238;49.556;10.956;2023-05-23T01:49:28;97926.75;;;17.40;100.00
20156;BME280;10238;49.556;10.956;2023-05-23T01:52:17;97921.00;;;17.37;100.00
20156;BME280;10238;49.556;10.956;2023-05-23T01:55:07;97917.69;;;17.28;100.00
20156;BME280;10238;49.556;10.956;2023-05-23T01:57:59;97916.44;;;17.24;100.00
20156;BME280;10238;49.556;10.956;2023-05-23T02:00:47;97919.34;;;17.16;100.00
20156;BME280;10238;49.556;10.956;2023-05-23T02:03:36;97919.34;;;17.09;100.00
20156;BME280;10238;49.556;10.956;2023-05-23T02:06:24;97922.44;;;17.13;100.00
20156;BME280;10238;49.556;10.956;2023-05-23T02:09:12;97913.16;;;17.09;100.00
20156;BME280;10238;49.556;10.956;2023-05-23T02:12:00;97913.16;;;17.09;100.00
20156;BME280;10238;49.556;10.956;2023-05-23T02:14:48;97913.13;;;17.02;100.00
20156;BME280;10238;49.556;10.956;2023-05-23T02:17:37;97911.47;;;16.95;100.00
20156;BME280;10238;49.556;10.956;2023-05-23T02:20:28;97912.09;;;16.90;100.00
20156;BME280;10238;49.556;10.956;2023-05-23T02:23:15;97912.50;;;16.87;100.00
20156;BME280;10238;49.556;10.956;2023-05-23T02:26:03;97928.63;;;16.81;100.00
20156;BME280;10238;49.556;10.956;2023-05-23T02:28:50;97919.72;;;16.80;100.00
20156;BME280;10238;49.556;10.956;2023-05-23T02:31:38;97922.84;;;16.84;100.00
20156;BME280;10238;49.556;10.956;2023-05-23T02:34:26;97929.41;;;16.81;100.00
20156;BME280;10238;49.556;10.956;2023-05-23T02:37:15;97937.72;;;16.80;100.00
20156;BME280;10238;49.556;10.956;2023-05-23T02:40:04;97936.63;;;16.74;100.00
20156;BME280;10238;49.556;10.956;2023-05-23T02:42:53;97932.53;;;16.78;100.00
20156;BME280;10238;49.556;10.956;2023-05-23T02:45:42;97937.47;;;16.75;100.00
20156;BME280;10238;49.556;10.956;2023-05-23T02:48:29;97939.94;;;16.70;100.00
20156;BME280;10238;49.556;10.956;2023-05-23T02:51:18;97947.38;;;16.68;100.00
20156;BME280;10238;49.556;10.956;2023-05-23T02:54:07;97949.44;;;16.66;100.00
20156;BME280;10238;49.556;10.956;2023-05-23T02:56:55;97956.25;;;16.75;100.00
20156;BME280;10238;49.556;10.956;2023-05-23T02:59:46;97954.81;;;16.72;100.00
20156;BME280;10238;49.556;10.956;2023-05-23T03:02:34;97951.72;;;16.69;100.00
20156;BME280;10238;49.556;10.956;2023-05-23T03:05:22;97955.19;;;16.63;100.00
20156;BME280;10238;49.556;10.956;2023-05-23T03:08:09;97958.53;;;16.65;100.00
20156;BME280;10238;49.556;10.956;2023-05-23T03:10:58;97957.28;;;16.67;100.00
20156;BME280;10238;49.556;10.956;2023-05-23T03:13:46;97960.16;;;16.66;100.00
20156;BME280;10238;49.556;10.956;2023-05-23T03:16:33;97965.13;;;16.69;100.00
20156;BME280;10238;49.556;10.956;2023-05-23T03:19:21;97961.00;;;16.73;100.00
20156;BME280;10238;49.556;10.956;2023-05-23T03:22:08;97966.56;;;16.71;100.00
20156;BME280;10238;49.556;10.956;2023-05-23T03:24:56;97972.13;;;16.70;100.00
20156;BME280;10238;49.556;10.956;2023-05-23T03:27:45;97968.22;;;16.66;100.00
20156;BME280;10238;49.556;10.956;2023-05-23T03:30:33;97976.25;;;16.66;100.00
20156;BME280;10238;49.556;10.956;2023-05-23T03:33:21;97983.06;;;16.62;100.00
20156;BME280;10238;49.556;10.956;2023-05-23T03:36:08;97988.25;;;16.63;100.00
20156;BME280;10238;49.556;10.956;2023-05-23T03:38:56;97983.06;;;16.62;100.00
20156;BME280;10238;49.556;10.956;2023-05-23T03:41:43;97989.88;;;16.58;100.00
20156;BME280;10238;49.556;10.956;2023-05-23T03:44:33;97988.19;;;16.57;100.00
20156;BME280;10238;49.556;10.956;2023-05-23T03:47:22;97993.16;;;16.60;100.00
20156;BME280;10238;49.556;10.956;2023-05-23T03:50:10;97989.03;;;16.57;100.00
20156;BME280;10238;49.556;10.956;2023-05-23T03:52:58;97988.84;;;16.59;100.00
20156;BME280;10238;49.556;10.956;2023-05-23T03:55:45;97998.34;;;16.61;100.00
20156;BME280;10238;49.556;10.956;2023-05-23T03:58:33;97997.72;;;16.59;100.00
20156;BME280;10238;49.556;10.956;2023-05-23T04:01:22;97995.25;;;16.58;100.00
20156;BME280;10238;49.556;10.956;2023-05-23T04:04:10;98004.31;;;16.57;100.00
20156;BME280;10238;49.556;10.956;2023-05-23T04:06:58;98002.25;;;16.59;100.00
20156;BME280;10238;49.556;10.956;2023-05-23T04:09:46;98015.69;;;16.65;100.00
20156;BME280;10238;49.556;10.956;2023-05-23T04:12:34;98010.13;;;16.67;100.00
20156;BME280;10238;49.556;10.956;2023-05-23T04:15:24;98013.66;;;16.67;100.00
20156;BME280;10238;49.556;10.956;2023-05-23T04:18:14;98014.25;;;16.63;100.00
20156;BME280;10238;49.556;10.956;2023-05-23T04:21:03;98022.94;;;16.65;100.00
20156;BME280;10238;49.556;10.956;2023-05-23T04:23:50;98022.94;;;16.71;100.00
20156;BME280;10238;49.556;10.956;2023-05-23T04:26:38;98029.34;;;16.70;100.00
20156;BME280;10238;49.556;10.956;2023-05-23T04:29:25;98030.78;;;16.73;100.00
20156;BME280;10238;49.556;10.956;2023-05-23T04:32:17;98032.03;;;16.70;100.00
20156;BME280;10238;49.556;10.956;2023-05-23T04:35:09;98031.19;;;16.70;100.00
20156;BME280;10238;49.556;10.956;2023-05-23T04:38:00;98031.19;;;16.70;100.00
20156;BME280;10238;49.556;10.956;2023-05-23T04:40:49;98026.22;;;16.67;100.00
20156;BME280;10238;49.556;10.956;2023-05-23T04:43:38;98035.31;;;16.66;100.00
20156;BME280;10238;49.556;10.956;2023-05-23T04:46:27;98034.28;;;16.67;100.00
20156;BME280;10238;49.556;10.956;2023-05-23T04:49:15;98033.69;;;16.71;100.00
20156;BME280;10238;49.556;10.956;2023-05-23T04:52:05;98041.13;;;16.76;100.00
20156;BME280;10238;49.556;10.956;2023-05-23T04:54:52;98044.44;;;16.78;100.00
20156;BME280;10238;49.556;10.956;2023-05-23T04:57:41;98037.03;;;16.80;100.00
20156;BME280;10238;49.556;10.956;2023-05-23T05:00:29;98048.19;;;16.83;100.00
20156;BME280;10238;49.556;10.956;2023-05-23T05:03:17;98048.38;;;16.82;100.00
20156;BME280;10238;49.556;10.956;2023-05-23T05:06:05;98054.38;;;16.84;100.00
20156;BME280;10238;49.556;10.956;2023-05-23T05:08:54;98054.00;;;16.87;100.00
20156;BME280;10238;49.556;10.956;2023-05-23T05:11:42;98061.25;;;16.93;100.00
20156;BME280;10238;49.556;10.956;2023-05-23T05:14:30;98062.28;;;16.98;100.00
20156;BME280;10238;49.556;10.956;2023-05-23T05:17:17;98061.69;;;17.03;100.00
20156;BME280;10238;49.556;10.956;2023-05-23T05:20:07;98056.91;;;17.05;100.00
20156;BME280;10238;49.556;10.956;2023-05-23T05:22:57;98062.72;;;17.08;100.00
20156;BME280;10238;49.556;10.956;2023-05-23T05:25:46;98059.84;;;17.10;100.00
20156;BME280;10238;49.556;10.956;2023-05-23T05:28:34;98062.31;;;17.11;100.00
20156;BME280;10238;49.556;10.956;2023-05-23T05:31:21;98060.66;;;17.17;100.00
20156;BME280;10238;49.556;10.956;2023-05-23T05:34:09;98067.28;;;17.21;100.00
20156;BME280;10238;49.556;10.956;2023-05-23T05:36:57;98064.84;;;17.26;100.00
20156;BME280;10238;49.556;10.956;2023-05-23T05:39:44;98064.03;;;17.32;100.00
20156;BME280;10238;49.556;10.956;2023-05-23T05:42:33;98062.16;;;17.39;100.00
20156;BME280;10238;49.556;10.956;2023-05-23T05:45:21;98063.22;;;17.45;100.00
20156;BME280;10238;49.556;10.956;2023-05-23T05:48:08;98057.47;;;17.54;100.00
20156;BME280;10238;49.556;10.956;2023-05-23T05:50:57;98063.25;;;17.64;100.00
20156;BME280;10238;49.556;10.956;2023-05-23T05:53:46;98062.03;;;17.73;100.00
20156;BME280;10238;49.556;10.956;2023-05-23T05:56:34;98058.69;;;17.84;100.00
20156;BME280;10238;49.556;10.956;2023-05-23T05:59:23;98065.75;;;17.98;100.00
20156;BME280;10238;49.556;10.956;2023-05-23T06:02:11;98064.69;;;18.12;100.00
20156;BME280;10238;49.556;10.956;2023-05-23T06:04:59;98066.94;;;18.28;100.00
20156;BME280;10238;49.556;10.956;2023-05-23T06:07:48;98067.31;;;18.51;100.00
20156;BME280;10238;49.556;10.956;2023-05-23T06:10:37;98069.53;;;18.67;100.00
20156;BME280;10238;49.556;10.956;2023-05-23T06:13:26;98068.03;;;18.84;100.00
20156;BME280;10238;49.556;10.956;2023-05-23T06:16:15;98077.50;;;19.00;100.00
20156;BME280;10238;49.556;10.956;2023-05-23T06:19:03;98067.06;;;19.16;100.00
20156;BME280;10238;49.556;10.956;2023-05-23T06:21:52;98064.69;;;19.33;100.00
20156;BME280;10238;49.556;10.956;2023-05-23T06:24:40;98063.94;;;19.51;100.00
20156;BME280;10238;49.556;10.956;2023-05-23T06:27:28;98055.06;;;19.75;100.00
20156;BME280;10238;49.556;10.956;2023-05-23T06:30:16;98060.53;;;19.93;100.00
20156;BME280;10238;49.556;10.956;2023-05-23T06:33:05;98047.28;;;20.09;100.00
20156;BME280;10238;49.556;10.956;2023-05-23T06:35:53;98046.06;;;20.30;100.00
20156;BME280;10238;49.556;10.956;2023-05-23T06:38:41;98051.94;;;20.45;100.00
20156;BME280;10238;49.556;10.956;2023-05-23T06:41:29;98060.50;;;20.60;100.00
20156;BME280;10238;49.556;10.956;2023-05-23T06:44:17;98056.13;;;20.77;100.00
20156;BME280;10238;49.556;10.956;2023-05-23T06:47:05;98052.41;;;20.96;100.00
20156;BME280;10238;49.556;10.956;2023-05-23T06:49:54;98062.41;;;21.07;100.00
20156;BME280;10238;49.556;10.956;2023-05-23T06:52:42;98064.38;;;21.18;100.00
20156;BME280;10238;49.556;10.956;2023-05-23T06:55:32;98064.63;;;21.28;100.00
20156;BME280;10238;49.556;10.956;2023-05-23T06:58:21;98062.44;;;21.37;100.00
20156;BME280;10238;49.556;10.956;2023-05-23T07:01:10;98066.19;;;21.36;100.00
20156;BME280;10238;49.556;10.956;2023-05-23T07:03:58;98070.94;;;21.40;100.00
20156;BME280;10238;49.556;10.956;2023-05-23T07:06:48;98069.63;;;21.43;100.00
20156;BME280;10238;49.556;10.956;2023-05-23T07:09:38;98076.81;;;21.49;100.00
20156;BME280;10238;49.556;10.956;2023-05-23T07:12:26;98076.03;;;21.60;100.00
20156;BME280;10238;49.556;10.956;2023-05-23T07:15:13;98083.97;;;21.73;100.00
20156;BME280;10238;49.556;10.956;2023-05-23T07:18:04;98085.22;;;21.70;100.00
20156;BME280;10238;49.556;10.956;2023-05-23T07:20:52;98077.56;;;21.67;100.00
20156;BME280;10238;49.556;10.956;2023-05-23T07:23:41;98082.41;;;21.65;100.00
20156;BME280;10238;49.556;10.956;2023-05-23T07:26:54;98074.28;;;21.65;100.00
20156;BME280;10238;49.556;10.956;2023-05-23T07:29:42;98080.97;;;21.63;100.00
20156;BME280;10238;49.556;10.956;2023-05-23T07:32:31;98078.03;;;21.64;100.00
20156;BME280;10238;49.556;10.956;2023-05-23T07:35:26;98079.94;;;21.64;100.00
20156;BME280;10238;49.556;10.956;2023-05-23T07:38:14;98080.28;;;21.67;100.00
20156;BME280;10238;49.556;10.956;2023-05-23T07:41:04;98084.19;;;21.71;100.00
20156;BME280;10238;49.556;10.956;2023-05-23T07:43:57;98080.75;;;21.64;100.00
20156;BME280;10238;49.556;10.956;2023-05-23T07:46:45;98090.38;;;21.60;100.00
20156;BME280;10238;49.556;10.956;2023-05-23T07:49:33;98090.84;;;21.57;100.00
20156;BME280;10238;49.556;10.956;2023-05-23T07:52:21;98085.69;;;21.67;100.00
20156;BME280;10238;49.556;10.956;2023-05-23T07:55:09;98086.81;;;21.78;100.00
20156;BME280;10238;49.556;10.956;2023-05-23T07:57:58;98086.59;;;21.79;100.00
20156;BME280;10238;49.556;10.956;2023-05-23T08:00:46;98092.59;;;21.81;100.00
20156;BME280;10238;49.556;10.956;2023-05-23T08:03:37;98089.75;;;21.76;100.00
20156;BME280;10238;49.556;10.956;2023-05-23T08:06:33;98090.47;;;21.83;100.00
20156;BME280;10238;49.556;10.956;2023-05-23T08:09:22;98088.63;;;21.95;100.00
20156;BME280;10238;49.556;10.956;2023-05-23T08:12:10;98092.78;;;22.09;100.00
20156;BME280;10238;49.556;10.956;2023-05-23T08:14:59;98086.28;;;22.10;100.00
20156;BME280;10238;49.556;10.956;2023-05-23T08:17:47;98087.34;;;22.09;100.00
20156;BME280;10238;49.556;10.956;2023-05-23T08:20:35;98081.00;;;22.27;100.00
20156;BME280;10238;49.556;10.956;2023-05-23T08:23:31;98081.94;;;22.44;100.00
20156;BME280;10238;49.556;10.956;2023-05-23T08:26:18;98089.84;;;22.45;100.00
20156;BME280;10238;49.556;10.956;2023-05-23T08:29:07;98094.19;;;22.46;100.00
20156;BME280;10238;49.556;10.956;2023-05-23T08:31:57;98086.22;;;22.51;100.00
20156;BME280;10238;49.556;10.956;2023-05-23T08:34:45;98088.53;;;22.59;100.00
20156;BME280;10238;49.556;10.956;2023-05-23T08:37:33;98092.94;;;22.60;100.00
20156;BME280;10238;49.556;10.956;2023-05-23T08:40:21;98091.84;;;22.73;97.99
20156;BME280;10238;49.556;10.956;2023-05-23T08:43:09;98088.41;;;22.77;97.20
20156;BME280;10238;49.556;10.956;2023-05-23T08:45:58;98094.53;;;22.73;96.27
20156;BME280;10238;49.556;10.956;2023-05-23T08:48:52;98097.88;;;22.63;95.87
20156;BME280;10238;49.556;10.956;2023-05-23T08:51:42;98103.41;;;22.57;95.16
20156;BME280;10238;49.556;10.956;2023-05-23T08:54:33;98102.22;;;22.53;94.36
20156;BME280;10238;49.556;10.956;2023-05-23T08:57:22;98101.06;;;22.60;94.07
20156;BME280;10238;49.556;10.956;2023-05-23T09:00:13;98110.56;;;22.74;93.21
20156;BME280;10238;49.556;10.956;2023-05-23T09:03:02;98106.31;;;22.78;93.04
20156;BME280;10238;49.556;10.956;2023-05-23T09:05:53;98102.44;;;22.74;92.20
20156;BME280;10238;49.556;10.956;2023-05-23T09:08:41;98115.03;;;22.80;91.24
20156;BME280;10238;49.556;10.956;2023-05-23T09:11:31;98107.25;;;22.95;91.22
20156;BME280;10238;49.556;10.956;2023-05-23T09:14:22;98117.81;;;23.08;88.46
20156;BME280;10238;49.556;10.956;2023-05-23T09:17:09;98113.16;;;23.20;89.32
20156;BME280;10238;49.556;10.956;2023-05-23T09:19:57;98121.47;;;23.54;87.73
20156;BME280;10238;49.556;10.956;2023-05-23T09:22:47;98121.19;;;23.67;87.30
20156;BME280;10238;49.556;10.956;2023-05-23T09:25:45;98124.47;;;23.69;87.29
20156;BME280;10238;49.556;10.956;2023-05-23T09:28:34;98131.06;;;23.73;86.83
20156;BME280;10238;49.556;10.956;2023-05-23T09:31:25;98129.63;;;23.54;88.10
20156;BME280;10238;49.556;10.956;2023-05-23T09:34:15;98128.91;;;23.75;86.58
20156;BME280;10238;49.556;10.956;2023-05-23T09:37:03;98128.91;;;23.75;84.44
20156;BME280;10238;49.556;10.956;2023-05-23T09:39:58;98126.94;;;23.70;83.46
20156;BME280;10238;49.556;10.956;2023-05-23T09:42:49;98130.97;;;23.96;82.03
20156;BME280;10238;49.556;10.956;2023-05-23T09:45:38;98130.75;;;24.14;81.19
20156;BME280;10238;49.556;10.956;2023-05-23T09:48:29;98135.91;;;24.32;80.15
20156;BME280;10238;49.556;10.956;2023-05-23T09:51:19;98135.91;;;24.48;77.99
20156;BME280;10238;49.556;10.956;2023-05-23T09:54:08;98134.03;;;24.49;78.38
20156;BME280;10238;49.556;10.956;2023-05-23T09:57:01;98136.25;;;24.52;78.34
20156;BME280;10238;49.556;10.956;2023-05-23T09:59:52;98141.00;;;24.61;75.46
20156;BME280;10238;49.556;10.956;2023-05-23T10:02:55;98140.69;;;24.58;73.87
20156;BME280;10238;49.556;10.956;2023-05-23T10:05:47;98138.13;;;24.51;74.13
20156;BME280;10238;49.556;10.956;2023-05-23T10:08:39;98130.81;;;24.52;73.02
20156;BME280;10238;49.556;10.956;2023-05-23T10:12:34;98129.16;;;24.51;71.06
20156;BME280;10238;49.556;10.956;2023-05-23T10:15:30;98136.25;;;24.68;70.36
20156;BME280;10238;49.556;10.956;2023-05-23T10:18:25;98128.94;;;24.90;69.15
20156;BME280;10238;49.556;10.956;2023-05-23T10:21:22;98133.88;;;24.93;69.13
20156;BME280;10238;49.556;10.956;2023-05-23T10:24:12;98137.94;;;24.91;68.88
20156;BME280;10238;49.556;10.956;2023-05-23T10:27:01;98143.13;;;24.92;68.38
20156;BME280;10238;49.556;10.956;2023-05-23T10:29:51;98137.06;;;24.85;67.19
20156;BME280;10238;49.556;10.956;2023-05-23T10:32:39;98132.13;;;24.82;66.31
20156;BME280;10238;49.556;10.956;2023-05-23T10:35:41;98155.19;;;24.80;66.64
20156;BME280;10238;49.556;10.956;2023-05-23T10:38:40;98149.25;;;24.83;67.50
20156;BME280;10238;49.556;10.956;2023-05-23T10:41:38;98148.88;;;24.96;66.52
20156;BME280;10238;49.556;10.956;2023-05-23T10:44:30;98152.91;;;25.10;65.96
20156;BME280;10238;49.556;10.956;2023-05-23T10:47:26;98146.56;;;25.04;66.03
20156;BME280;10238;49.556;10.956;2023-05-23T10:50:29;98149.97;;;25.16;63.68
20156;BME280;10238;49.556;10.956;2023-05-23T10:53:18;98152.25;;;25.41;63.74
20156;BME280;10238;49.556;10.956;2023-05-23T10:56:07;98153.88;;;25.42;63.19
20156;BME280;10238;49.556;10.956;2023-05-23T10:58:56;98158.88;;;25.50;63.57
20156;BME280;10238;49.556;10.956;2023-05-23T11:01:44;98159.94;;;25.49;64.71
20156;BME280;10238;49.556;10.956;2023-05-23T11:04:33;98163.13;;;25.41;63.42
20156;BME280;10238;49.556;10.956;2023-05-23T11:07:31;98150.59;;;25.40;64.14
20156;BME280;10238;49.556;10.956;2023-05-23T11:10:23;98166.63;;;25.20;65.16
20156;BME280;10238;49.556;10.956;2023-05-23T11:13:11;98161.94;;;25.15;65.75
20156;BME280;10238;49.556;10.956;2023-05-23T11:15:58;98165.00;;;25.19;65.64
20156;BME280;10238;49.556;10.956;2023-05-23T11:18:46;98161.00;;;25.26;64.49
20156;BME280;10238;49.556;10.956;2023-05-23T11:21:36;98160.91;;;25.38;63.40
20156;BME280;10238;49.556;10.956;2023-05-23T11:24:49;98158.19;;;25.38;63.49
20156;BME280;10238;49.556;10.956;2023-05-23T11:27:39;98160.66;;;25.40;65.17
20156;BME280;10238;49.556;10.956;2023-05-23T11:30:28;98163.63;;;25.38;65.03
20156;BME280;10238;49.556;10.956;2023-05-23T11:33:16;98169.34;;;25.37;64.57
20156;BME280;10238;49.556;10.956;2023-05-23T11:36:06;98166.63;;;25.20;63.50
20156;BME280;10238;49.556;10.956;2023-05-23T11:39:01;98169.47;;;25.08;63.89
20156;BME280;10238;49.556;10.956;2023-05-23T11:42:07;98166.97;;;24.85;64.20
20156;BME280;10238;49.556;10.956;2023-05-23T11:44:54;98167.38;;;24.77;64.13
20156;BME280;10238;49.556;10.956;2023-05-23T11:47:43;98163.44;;;24.68;63.38
20156;BME280;10238;49.556;10.956;2023-05-23T11:50:32;98162.28;;;24.64;63.92
20156;BME280;10238;49.556;10.956;2023-05-23T11:53:21;98157.81;;;24.58;63.99
20156;BME280;10238;49.556;10.956;2023-05-23T11:56:14;98163.59;;;24.62;63.48
20156;BME280;10238;49.556;10.956;2023-05-23T11:59:02;98159.31;;;24.66;63.43
20156;BME280;10238;49.556;10.956;2023-05-23T12:01:50;98158.97;;;24.62;63.92
20156;BME280;10238;49.556;10.956;2023-05-23T12:04:38;98168.94;;;24.57;63.44
20156;BME280;10238;49.556;10.956;2023-05-23T12:07:26;98163.75;;;24.55;64.66
20156;BME280;10238;49.556;10.956;2023-05-23T12:10:16;98159.78;;;24.46;64.02
20156;BME280;10238;49.556;10.956;2023-05-23T12:13:09;98166.22;;;24.24;63.67
20156;BME280;10238;49.556;10.956;2023-05-23T12:15:59;98175.19;;;24.08;64.34
20156;BME280;10238;49.556;10.956;2023-05-23T12:18:48;98173.22;;;23.92;63.80
20156;BME280;10238;49.556;10.956;2023-05-23T12:21:44;98175.91;;;23.75;64.30
20156;BME280;10238;49.556;10.956;2023-05-23T12:24:32;98184.31;;;23.62;65.48
20156;BME280;10238;49.556;10.956;2023-05-23T12:27:27;98176.06;;;23.57;65.75
20156;BME280;10238;49.556;10.956;2023-05-23T12:30:18;98180.97;;;23.44;66.03
20156;BME280;10238;49.556;10.956;2023-05-23T12:33:08;98180.66;;;23.28;66.59
20156;BME280;10238;49.556;10.956;2023-05-23T12:35:56;98187.72;;;23.18;66.91
20156;BME280;10238;49.556;10.956;2023-05-23T12:38:44;98188.34;;;22.97;68.02
20156;BME280;10238;49.556;10.956;2023-05-23T12:41:32;98194.72;;;22.79;68.27
20156;BME280;10238;49.556;10.956;2023-05-23T12:44:20;98198.94;;;22.75;68.51
20156;BME280;10238;49.556;10.956;2023-05-23T12:47:10;98200.34;;;22.66;68.38
20156;BME280;10238;49.556;10.956;2023-05-23T12:49:59;98200.84;;;22.63;69.58
20156;BME280;10238;49.556;10.956;2023-05-23T12:52:47;98200.00;;;22.63;70.15
20156;BME280;10238;49.556;10.956;2023-05-23T12:55:35;98202.97;;;22.61;70.45
20156;BME280;10238;49.556;10.956;2023-05-23T12:58:24;98199.53;;;22.66;70.11
20156;BME280;10238;49.556;10.956;2023-05-23T13:01:16;98205.53;;;22.56;70.82
20156;BME280;10238;49.556;10.956;2023-05-23T13:04:06;98199.66;;;22.59;71.43
20156;BME280;10238;49.556;10.956;2023-05-23T13:06:54;98199.88;;;22.58;71.59
20156;BME280;10238;49.556;10.956;2023-05-23T13:09:42;98201.19;;;22.55;72.21
20156;BME280;10238;49.556;10.956;2023-05-23T13:12:30;98203.44;;;22.58;73.06
20156;BME280;10238;49.556;10.956;2023-05-23T13:15:21;98207.19;;;22.57;73.19
20156;BME280;10238;49.556;10.956;2023-05-23T13:18:09;98203.16;;;22.48;73.98
20156;BME280;10238;49.556;10.956;2023-05-23T13:20:58;98211.88;;;22.50;74.35
20156;BME280;10238;49.556;10.956;2023-05-23T13:23:46;98208.56;;;22.48;74.53
20156;BME280;10238;49.556;10.956;2023-05-23T13:26:36;98212.72;;;22.62;74.18
20156;BME280;10238;49.556;10.956;2023-05-23T13:29:23;98198.63;;;22.72;73.68
20156;BME280;10238;49.556;10.956;2023-05-23T13:32:12;98200.25;;;22.96;73.55
20156;BME280;10238;49.556;10.956;2023-05-23T13:34:59;98206.59;;;23.13;72.92
20156;BME280;10238;49.556;10.956;2023-05-23T13:37:48;98204.03;;;22.95;71.91
20156;BME280;10238;49.556;10.956;2023-05-23T13:40:36;98188.94;;;22.87;73.11
20156;BME280;10238;49.556;10.956;2023-05-23T13:43:24;98198.38;;;22.85;73.22
20156;BME280;10238;49.556;10.956;2023-05-23T13:46:12;98200.72;;;22.81;74.14
20156;BME280;10238;49.556;10.956;2023-05-23T13:49:00;98204.13;;;22.77;73.55
20156;BME280;10238;49.556;10.956;2023-05-23T13:51:48;98205.56;;;22.79;73.95
20156;BME280;10238;49.556;10.956;2023-05-23T13:54:38;98195.06;;;22.71;73.15
20156;BME280;10238;49.556;10.956;2023-05-23T13:57:27;98200.84;;;22.63;74.01
20156;BME280;10238;49.556;10.956;2023-05-23T14:00:16;98206.75;;;22.60;73.15
20156;BME280;10238;49.556;10.956;2023-05-23T14:03:04;98206.75;;;22.60;73.62
20156;BME280;10238;49.556;10.956;2023-05-23T14:05:51;98208.38;;;22.61;73.35
20156;BME280;10238;49.556;10.956;2023-05-23T14:08:39;98218.56;;;22.48;73.87
20156;BME280;10238;49.556;10.956;2023-05-23T14:11:29;98212.34;;;22.47;74.28
20156;BME280;10238;49.556;10.956;2023-05-23T14:14:17;98211.28;;;22.48;74.89
20156;BME280;10238;49.556;10.956;2023-05-23T14:17:05;98217.75;;;22.47;75.38
20156;BME280;10238;49.556;10.956;2023-05-23T14:19:52;98212.94;;;22.49;75.85
20156;BME280;10238;49.556;10.956;2023-05-23T14:22:43;98213.78;;;22.50;76.44
20156;BME280;10238;49.556;10.956;2023-05-23T14:25:30;98226.03;;;22.52;76.58
20156;BME280;10238;49.556;10.956;2023-05-23T14:28:19;98220.63;;;22.52;76.19
20156;BME280;10238;49.556;10.956;2023-05-23T14:31:07;98217.50;;;22.49;76.71
20156;BME280;10238;49.556;10.956;2023-05-23T14:33:56;98221.25;;;22.36;76.94
20156;BME280;10238;49.556;10.956;2023-05-23T14:36:44;98219.72;;;22.40;77.19
20156;BME280;10238;49.556;10.956;2023-05-23T14:39:32;98214.09;;;22.42;76.28
20156;BME280;10238;49.556;10.956;2023-05-23T14:42:21;98215.53;;;22.44;76.65